Time;durP1;ratioP1;P1;durP2;ratioP2;P2;SDS_P1;SDS_P2;PMS_P1;PMS_P2;Temp;Humidity;BMP_temperature;BMP_pressure;BME280_temperature;BME280_humidity;BME280_pressure;Samples;Min_cycle;Max_cycle;Signal;HPM_P1;HPM_P2
2022/03/29 00:00:49;;;;;;;;;66.25;52.50;;;;;;;;4994381;28;45230;-71
2022/03/29 00:03:15;;;;;;;;;68.50;52.00;;;;;;;;5000998;28;45331;-71
2022/03/29 00:05:40;;;;;;;;;73.00;53.50;;;;;;;;5014071;28;45573;-71
2022/03/29 00:08:05;;;;;;;;;70.25;51.50;;;;;;;;5013921;28;45456;-71
2022/03/29 00:10:30;;;;;;;;;69.25;52.50;;;;;;;;5013983;28;45469;-71
2022/03/29 00:12:56;;;;;;;;;71.00;51.00;;;;;;;;5014070;28;45447;-71
2022/03/29 00:15:22;;;;;;;;;64.00;52.50;;;;;;;;5013775;28;46570;-71
2022/03/29 00:17:48;;;;;;;;;71.25;54.00;;;;;;;;5013293;28;45367;-71
2022/03/29 00:20:17;;;;;;;;;68.00;52.00;;;;;;;;5014110;28;45396;-71
2022/03/29 00:22:42;;;;;;;;;70.75;53.75;;;;;;;;5014049;28;45307;-71
2022/03/29 00:25:08;;;;;;;;;71.75;53.50;;;;;;;;5013589;28;46055;-70
2022/03/29 00:27:35;;;;;;;;;69.25;55.25;;;;;;;;5013939;28;45235;-71
2022/03/29 00:30:00;;;;;;;;;67.75;53.25;;;;;;;;5013675;28;45399;-71
2022/03/29 00:32:25;;;;;;;;;66.25;52.50;;;;;;;;5002121;28;45369;-71
2022/03/29 00:34:51;;;;;;;;;68.75;51.00;;;;;;;;4994704;28;47474;-71
2022/03/29 00:37:16;;;;;;;;;70.75;53.75;;;;;;;;5013781;28;45426;-71
2022/03/29 00:39:42;;;;;;;;;71.00;53.50;;;;;;;;5013904;28;45328;-71
2022/03/29 00:42:07;;;;;;;;;72.25;56.25;;;;;;;;5013598;28;45296;-71
2022/03/29 00:44:34;;;;;;;;;72.25;53.50;;;;;;;;5013230;28;45366;-71
2022/03/29 00:47:00;;;;;;;;;68.00;53.00;;;;;;;;5015659;28;45340;-71
2022/03/29 00:49:26;;;;;;;;;71.50;52.75;;;;;;;;5016167;28;45238;-71
2022/03/29 00:51:55;;;;;;;;;67.75;52.00;;;;;;;;4997014;28;45414;-70
2022/03/29 00:54:20;;;;;;;;;72.50;54.50;;;;;;;;5012095;28;46972;-70
2022/03/29 00:56:45;;;;;;;;;72.75;57.00;;;;;;;;5015702;28;45424;-71
2022/03/29 00:59:11;;;;;;;;;66.75;51.50;;;;;;;;5016680;28;45820;-71
2022/03/29 01:01:36;;;;;;;;;68.25;52.00;;;;;;;;5016088;28;45312;-70
2022/03/29 01:04:02;;;;;;;;;72.00;53.50;;;;;;;;5016038;28;46269;-71
2022/03/29 01:06:28;;;;;;;;;70.50;53.75;;;;;;;;5016191;28;45327;-71
2022/03/29 01:08:53;;;;;;;;;68.75;51.00;;;;;;;;5002154;28;45468;-71
2022/03/29 01:11:18;;;;;;;;;71.75;51.00;;;;;;;;4996967;28;45329;-70
2022/03/29 01:13:43;;;;;;;;;72.50;55.00;;;;;;;;4996035;28;45534;-70
2022/03/29 01:18:53;;;;;;;;;70.25;54.00;;;;;;;;5011498;28;45315;-71
2022/03/29 01:21:20;;;;;;;;;72.75;53.00;;;;;;;;5006116;28;45336;-71
2022/03/29 01:23:47;;;;;;;;;68.50;53.25;;;;;;;;4997065;28;46350;-72
2022/03/29 01:26:13;;;;;;;;;70.25;55.50;;;;;;;;4996313;28;45314;-72
2022/03/29 01:28:39;;;;;;;;;72.00;54.00;;;;;;;;5010619;28;45200;-71
2022/03/29 01:31:04;;;;;;;;;69.25;54.00;;;;;;;;5007513;28;45556;-72
2022/03/29 01:33:30;;;;;;;;;69.50;53.00;;;;;;;;4995993;28;46257;-72
2022/03/29 01:35:56;;;;;;;;;74.25;56.75;;;;;;;;4996282;28;45317;-72
2022/03/29 01:38:21;;;;;;;;;71.50;55.00;;;;;;;;4996519;28;45448;-72
2022/03/29 01:40:47;;;;;;;;;73.50;55.50;;;;;;;;4996397;28;45305;-71
2022/03/29 01:43:12;;;;;;;;;69.25;52.75;;;;;;;;4996291;28;46555;-72
2022/03/29 01:45:37;;;;;;;;;72.00;54.25;;;;;;;;4995269;28;45364;-71
2022/03/29 01:48:03;;;;;;;;;68.50;54.00;;;;;;;;4995905;28;45429;-72
2022/03/29 01:50:28;;;;;;;;;70.25;54.00;;;;;;;;4996345;28;45375;-72
2022/03/29 01:52:53;;;;;;;;;75.00;54.50;;;;;;;;4995880;28;45523;-71
2022/03/29 01:55:19;;;;;;;;;74.00;54.00;;;;;;;;4995996;28;45337;-71
2022/03/29 01:57:45;;;;;;;;;73.25;56.50;;;;;;;;5000878;28;45372;-71
2022/03/29 02:02:58;;;;;;;;;73.25;55.00;;;;;;;;5015792;28;45887;-71
2022/03/29 02:05:24;;;;;;;;;71.25;53.75;;;;;;;;5015657;28;45418;-71
2022/03/29 02:07:50;;;;;;;;;76.75;55.25;;;;;;;;5008258;28;45213;-71
2022/03/29 02:10:18;;;;;;;;;77.25;55.00;;;;;;;;4996178;28;45441;-71
2022/03/29 02:12:43;;;;;;;;;64.75;48.50;;;;;;;;4995417;28;46608;-71
2022/03/29 02:15:09;;;;;;;;;67.25;51.50;;;;;;;;4995436;28;45393;-71
2022/03/29 02:17:34;;;;;;;;;70.25;54.00;;;;;;;;5001571;28;45442;-71
2022/03/29 02:20:00;;;;;;;;;71.75;55.75;;;;;;;;5015743;28;45361;-71
2022/03/29 02:22:25;;;;;;;;;71.50;55.25;;;;;;;;5015530;28;47044;-71
2022/03/29 02:24:50;;;;;;;;;70.75;54.00;;;;;;;;5015427;28;45303;-71
2022/03/29 02:27:16;;;;;;;;;63.00;50.25;;;;;;;;5015343;28;45790;-71
2022/03/29 02:29:41;;;;;;;;;70.25;54.00;;;;;;;;5015685;28;45419;-71
2022/03/29 02:32:06;;;;;;;;;74.50;59.75;;;;;;;;5013318;28;45463;-71
2022/03/29 02:34:31;;;;;;;;;73.50;55.50;;;;;;;;5015714;28;45322;-71
2022/03/29 02:36:57;;;;;;;;;73.25;55.50;;;;;;;;5015211;28;45348;-71
2022/03/29 02:39:22;;;;;;;;;69.75;53.50;;;;;;;;5015598;28;45278;-71
2022/03/29 02:41:47;;;;;;;;;75.50;56.00;;;;;;;;5015203;28;46282;-71
2022/03/29 02:44:12;;;;;;;;;71.00;53.00;;;;;;;;5015114;28;45873;-71
2022/03/29 02:46:37;;;;;;;;;72.75;55.25;;;;;;;;5012622;28;46868;-71
2022/03/29 02:49:03;;;;;;;;;70.75;54.75;;;;;;;;4995520;28;45339;-71
2022/03/29 02:51:28;;;;;;;;;77.00;55.50;;;;;;;;4995232;28;45491;-71
2022/03/29 02:53:53;;;;;;;;;69.50;52.25;;;;;;;;4995300;28;45317;-71
2022/03/29 02:56:19;;;;;;;;;73.25;56.75;;;;;;;;5006454;28;45397;-71
2022/03/29 02:58:44;;;;;;;;;66.75;53.25;;;;;;;;5015438;28;45428;-71
2022/03/29 03:01:09;;;;;;;;;72.25;53.50;;;;;;;;4999627;28;46375;-71
2022/03/29 03:03:34;;;;;;;;;74.50;55.25;;;;;;;;4995129;28;45287;-71
2022/03/29 03:06:00;;;;;;;;;72.50;55.00;;;;;;;;4995275;28;45377;-71
2022/03/29 03:08:25;;;;;;;;;75.00;55.50;;;;;;;;5007426;28;45536;-71
2022/03/29 03:10:50;;;;;;;;;73.75;55.50;;;;;;;;5015272;28;45306;-71
2022/03/29 03:13:15;;;;;;;;;70.75;54.25;;;;;;;;5014808;28;45738;-71
2022/03/29 03:15:41;;;;;;;;;69.00;54.50;;;;;;;;5015048;28;45355;-71
2022/03/29 03:18:06;;;;;;;;;72.50;54.75;;;;;;;;5014841;28;45451;-71
2022/03/29 03:20:32;;;;;;;;;73.25;54.75;;;;;;;;5014547;28;46384;-71
2022/03/29 03:22:57;;;;;;;;;67.75;51.50;;;;;;;;4992673;28;45463;-71
2022/03/29 03:25:22;;;;;;;;;73.00;53.75;;;;;;;;4984917;28;45392;-70
2022/03/29 03:27:48;;;;;;;;;76.50;59.50;;;;;;;;4975516;28;45394;-71
2022/03/29 03:30:14;;;;;;;;;71.25;54.50;;;;;;;;4974999;28;46540;-71
2022/03/29 03:32:41;;;;;;;;;71.50;54.50;;;;;;;;4975061;28;45315;-71
2022/03/29 03:35:06;;;;;;;;;71.00;53.00;;;;;;;;4978390;28;45333;-70
2022/03/29 03:37:33;;;;;;;;;72.00;54.75;;;;;;;;5014417;28;45615;-71
2022/03/29 03:39:58;;;;;;;;;69.00;55.00;;;;;;;;5014399;28;46211;-70
2022/03/29 03:42:23;;;;;;;;;69.50;52.75;;;;;;;;5014514;28;45310;-71
2022/03/29 03:44:49;;;;;;;;;75.75;57.00;;;;;;;;5014501;28;45236;-71
2022/03/29 03:47:17;;;;;;;;;68.75;54.25;;;;;;;;5014547;28;45382;-70
2022/03/29 03:49:42;;;;;;;;;89.75;81.00;;;;;;;;5013167;28;46565;-70
2022/03/29 03:52:08;;;;;;;;;67.75;53.50;;;;;;;;5014371;28;45409;-71
2022/03/29 03:54:34;;;;;;;;;72.75;55.50;;;;;;;;5014321;28;45353;-71
2022/03/29 03:56:59;;;;;;;;;74.50;55.00;;;;;;;;5014334;28;45473;-70
2022/03/29 03:59:24;;;;;;;;;77.25;55.50;;;;;;;;5003546;28;46630;-71
2022/03/29 04:01:49;;;;;;;;;71.00;53.25;;;;;;;;5005916;28;45374;-71
2022/03/29 04:04:15;;;;;;;;;77.00;55.25;;;;;;;;5014465;28;45356;-70
2022/03/29 04:06:40;;;;;;;;;69.00;55.25;;;;;;;;5012307;28;45360;-71
2022/03/29 04:09:05;;;;;;;;;71.50;55.75;;;;;;;;4994084;28;47284;-71
2022/03/29 04:11:30;;;;;;;;;73.00;54.50;;;;;;;;4994311;28;45458;-70
2022/03/29 04:13:56;;;;;;;;;75.00;56.00;;;;;;;;5014108;28;45448;-70
2022/03/29 04:16:21;;;;;;;;;74.00;56.75;;;;;;;;5014176;28;45214;-71
2022/03/29 04:18:47;;;;;;;;;74.50;54.75;;;;;;;;5012272;28;47015;-71
2022/03/29 04:21:12;;;;;;;;;73.50;57.50;;;;;;;;5016432;28;45309;-71
2022/03/29 04:23:37;;;;;;;;;66.50;51.00;;;;;;;;5017155;28;45761;-71
2022/03/29 04:26:03;;;;;;;;;68.25;52.00;;;;;;;;5016996;28;45602;-71
2022/03/29 04:28:28;;;;;;;;;71.25;55.00;;;;;;;;4997848;28;46441;-69
2022/03/29 04:30:55;;;;;;;;;80.75;62.75;;;;;;;;4996915;28;45259;-76
2022/03/29 04:33:21;;;;;;;;;73.00;54.75;;;;;;;;4997166;28;45454;-75
2022/03/29 04:35:46;;;;;;;;;72.00;55.00;;;;;;;;4997150;28;45452;-75
2022/03/29 04:38:12;;;;;;;;;74.00;54.75;;;;;;;;5002277;28;46025;-75
2022/03/29 04:40:37;;;;;;;;;80.00;58.75;;;;;;;;5016604;28;45392;-70
2022/03/29 04:43:02;;;;;;;;;75.75;57.50;;;;;;;;5016629;28;45378;-71
2022/03/29 04:45:27;;;;;;;;;74.50;54.50;;;;;;;;5011752;27;45454;-70
2022/03/29 04:47:53;;;;;;;;;73.50;53.75;;;;;;;;5010007;28;46730;-71
2022/03/29 04:50:18;;;;;;;;;71.25;54.75;;;;;;;;5016336;28;45406;-71
2022/03/29 04:52:47;;;;;;;;;72.50;54.25;;;;;;;;5014792;28;45299;-71
2022/03/29 04:55:16;;;;;;;;;77.00;55.25;;;;;;;;5016655;28;45435;-70
2022/03/29 04:57:42;;;;;;;;;68.50;54.25;;;;;;;;5016359;28;46235;-70
2022/03/29 05:00:08;;;;;;;;;70.50;54.75;;;;;;;;5016267;28;45492;-70
2022/03/29 05:02:34;;;;;;;;;74.75;56.00;;;;;;;;5006478;28;45356;-70
2022/03/29 05:05:01;;;;;;;;;73.25;55.00;;;;;;;;4996742;28;45360;-69
2022/03/29 05:07:28;;;;;;;;;75.25;55.25;;;;;;;;4996506;28;46090;-70
2022/03/29 05:09:53;;;;;;;;;71.00;54.50;;;;;;;;4995860;28;45501;-70
2022/03/29 05:12:19;;;;;;;;;72.50;55.75;;;;;;;;5004340;28;45440;-70
2022/03/29 05:14:44;;;;;;;;;66.75;52.00;;;;;;;;5016458;28;45191;-69
2022/03/29 05:17:09;;;;;;;;;71.25;52.25;;;;;;;;5016014;28;46454;-69
2022/03/29 05:19:34;;;;;;;;;71.50;53.75;;;;;;;;5015873;28;45571;-69
2022/03/29 05:22:00;;;;;;;;;75.25;55.25;;;;;;;;5016323;28;45269;-69
2022/03/29 05:24:26;;;;;;;;;72.25;56.00;;;;;;;;5016203;28;45506;-69
2022/03/29 05:26:51;;;;;;;;;76.75;54.00;;;;;;;;5009076;28;46648;-70
2022/03/29 05:29:18;;;;;;;;;73.75;55.50;;;;;;;;4996608;28;45429;-69
2022/03/29 05:31:43;;;;;;;;;70.00;54.75;;;;;;;;4995446;28;45613;-69
2022/03/29 05:34:08;;;;;;;;;70.50;54.50;;;;;;;;4996129;28;45448;-70
2022/03/29 05:36:34;;;;;;;;;73.75;52.75;;;;;;;;4995865;28;45516;-69
2022/03/29 05:38:59;;;;;;;;;67.25;54.75;;;;;;;;4996159;28;45537;-69
2022/03/29 05:41:24;;;;;;;;;72.50;56.25;;;;;;;;4996252;28;45454;-69
2022/03/29 05:43:50;;;;;;;;;71.50;54.75;;;;;;;;4996478;28;45468;-69
2022/03/29 05:48:59;;;;;;;;;74.00;56.00;;;;;;;;4995975;28;45415;-69
2022/03/29 05:51:25;;;;;;;;;70.50;53.00;;;;;;;;5014265;27;45361;-69
2022/03/29 05:53:52;;;;;;;;;74.75;56.50;;;;;;;;4996184;28;45488;-69
2022/03/29 05:56:17;;;;;;;;;71.50;50.50;;;;;;;;4995900;28;47369;-69
2022/03/29 05:58:43;;;;;;;;;72.50;54.75;;;;;;;;4995814;28;45167;-70
2022/03/29 06:01:08;;;;;;;;;73.25;55.25;;;;;;;;4996080;28;45843;-70
2022/03/29 06:03:33;;;;;;;;;76.00;56.00;;;;;;;;5006878;28;45215;-70
2022/03/29 06:05:58;;;;;;;;;78.00;56.25;;;;;;;;5015564;28;46497;-70
2022/03/29 06:08:24;;;;;;;;;73.50;55.25;;;;;;;;5015655;28;45173;-70
2022/03/29 06:10:49;;;;;;;;;69.00;53.50;;;;;;;;5015693;28;45239;-69
2022/03/29 06:13:14;;;;;;;;;71.25;53.25;;;;;;;;4997528;28;45297;-70
2022/03/29 06:15:39;;;;;;;;;73.00;56.50;;;;;;;;4995735;28;46100;-70
2022/03/29 06:18:05;;;;;;;;;70.00;53.50;;;;;;;;4995770;28;45383;-70
2022/03/29 06:20:31;;;;;;;;;71.50;52.75;;;;;;;;4995673;28;45278;-70
2022/03/29 06:22:56;;;;;;;;;67.50;53.00;;;;;;;;4995882;28;45598;-69
2022/03/29 06:25:21;;;;;;;;;72.25;52.75;;;;;;;;4995362;28;46169;-69
2022/03/29 06:27:47;;;;;;;;;69.25;52.00;;;;;;;;5011067;28;45373;-70
2022/03/29 06:30:12;;;;;;;;;67.25;51.25;;;;;;;;5015256;28;45354;-70
2022/03/29 06:32:48;;;;;;;;;70.75;53.75;;;;;;;;5015587;28;45360;-69
2022/03/29 06:35:16;;;;;;;;;74.00;55.25;;;;;;;;4998734;28;46474;-70
2022/03/29 06:37:41;;;;;;;;;68.25;51.00;;;;;;;;4995274;28;45420;-69
2022/03/29 06:40:07;;;;;;;;;74.50;56.25;;;;;;;;4996417;28;45267;-69
2022/03/29 06:42:32;;;;;;;;;67.50;54.00;;;;;;;;5010522;27;45510;-69
2022/03/29 06:44:57;;;;;;;;;67.75;52.00;;;;;;;;5015193;28;45282;-70
2022/03/29 06:47:22;;;;;;;;;69.75;54.50;;;;;;;;5013604;28;45474;-69
2022/03/29 06:49:48;;;;;;;;;75.00;54.75;;;;;;;;5014643;28;45615;-70
2022/03/29 06:52:13;;;;;;;;;69.50;54.00;;;;;;;;5015265;28;45561;-70
2022/03/29 06:54:38;;;;;;;;;70.25;52.75;;;;;;;;4999397;28;46522;-69
2022/03/29 06:57:06;;;;;;;;;68.25;50.25;;;;;;;;4995467;28;45227;-69
2022/03/29 06:59:32;;;;;;;;;63.25;48.25;;;;;;;;5010469;28;45534;-69
2022/03/29 07:01:57;;;;;;;;;72.00;56.75;;;;;;;;4999731;28;45442;-69
2022/03/29 07:04:22;;;;;;;;;69.50;52.75;;;;;;;;4995269;28;46653;-69
2022/03/29 07:06:47;;;;;;;;;73.50;54.25;;;;;;;;4995022;28;45338;-69
2022/03/29 07:11:56;;;;;;;;;75.00;55.00;;;;;;;;4994968;28;45473;-70
2022/03/29 07:14:22;;;;;;;;;68.75;53.00;;;;;;;;4994448;28;46165;-70
2022/03/29 07:16:47;;;;;;;;;62.50;48.75;;;;;;;;4994774;28;45323;-69
2022/03/29 07:19:12;;;;;;;;;63.75;49.25;;;;;;;;4995049;28;45299;-71
2022/03/29 07:21:39;;;;;;;;;63.50;50.00;;;;;;;;4998510;28;45393;-70
2022/03/29 07:24:08;;;;;;;;;70.25;51.50;;;;;;;;5013146;28;46440;-70
2022/03/29 07:26:34;;;;;;;;;71.25;52.75;;;;;;;;5014679;28;45252;-70
2022/03/29 07:28:59;;;;;;;;;69.00;52.00;;;;;;;;5002102;28;45387;-69
2022/03/29 07:31:25;;;;;;;;;67.25;47.25;;;;;;;;4994941;28;45325;-70
2022/03/29 07:33:50;;;;;;;;;58.50;48.25;;;;;;;;4994742;28;46585;-70
2022/03/29 07:36:15;;;;;;;;;65.00;49.50;;;;;;;;5001822;28;45535;-69
2022/03/29 07:38:41;;;;;;;;;65.67;50.67;;;;;;;;5014709;28;45217;-70
2022/03/29 07:41:06;;;;;;;;;64.50;51.50;;;;;;;;5014339;28;45491;-70
2022/03/29 07:43:31;;;;;;;;;58.33;46.00;;;;;;;;5000985;28;45339;-70
2022/03/29 07:45:57;;;;;;;;;64.00;49.00;;;;;;;;5006921;28;45524;-70
2022/03/29 07:48:22;;;;;;;;;63.00;47.00;;;;;;;;5000550;28;45372;-70
2022/03/29 07:50:48;;;;;;;;;63.25;49.00;;;;;;;;5014581;28;45439;-70
2022/03/29 07:53:13;;;;;;;;;62.67;47.67;;;;;;;;5014177;28;47429;-70
2022/03/29 07:55:40;;;;;;;;;63.25;47.75;;;;;;;;5013741;28;45288;-70
2022/03/29 07:58:05;;;;;;;;;61.00;47.25;;;;;;;;5014526;28;45514;-70
2022/03/29 08:00:34;;;;;;;;;58.75;46.50;;;;;;;;5014463;28;45293;-70
2022/03/29 08:03:00;;;;;;;;;60.00;47.00;;;;;;;;5008757;28;46650;-69
2022/03/29 08:05:26;;;;;;;;;60.75;46.50;;;;;;;;4994187;28;45259;-70
2022/03/29 08:07:51;;;;;;;;;59.00;47.00;;;;;;;;4994417;28;45266;-69
2022/03/29 08:10:17;;;;;;;;;63.25;47.25;;;;;;;;4994165;28;45344;-68
2022/03/29 08:12:43;;;;;;;;;62.67;47.00;;;;;;;;5014055;28;46599;-68
2022/03/29 08:15:10;;;;;;;;;64.25;48.00;;;;;;;;5013987;28;45451;-69
2022/03/29 08:17:35;;;;;;;;;62.75;48.50;;;;;;;;5014090;28;45271;-70
2022/03/29 08:20:01;;;;;;;;;61.25;46.25;;;;;;;;5014141;28;45338;-70
2022/03/29 08:22:26;;;;;;;;;55.33;46.33;;;;;;;;5013954;28;45357;-70
2022/03/29 08:24:52;;;;;;;;;56.00;47.00;;;;;;;;5014041;28;45435;-70
2022/03/29 08:27:17;;;;;;;;;59.25;45.25;;;;;;;;4993750;28;45310;-70
2022/03/29 08:29:43;;;;;;;;;63.75;50.00;;;;;;;;4994197;28;45792;-70
2022/03/29 08:32:08;;;;;;;;;59.00;46.00;;;;;;;;4993247;28;46116;-70
2022/03/29 08:34:33;;;;;;;;;64.25;48.75;;;;;;;;4992114;28;45367;-70
2022/03/29 08:36:59;;;;;;;;;61.00;45.67;;;;;;;;4993973;28;45544;-71
2022/03/29 08:39:24;;;;;;;;;64.00;48.50;;;;;;;;4993638;28;45360;-71
2022/03/29 08:41:59;;;;;;;;;63.50;47.75;;;;;;;;4992381;28;46359;-71
2022/03/29 08:44:26;;;;;;;;;58.25;45.75;;;;;;;;4993476;28;45370;-70
2022/03/29 08:46:51;;;;;;;;;59.00;45.67;;;;;;;;4979137;28;45439;-71
2022/03/29 08:49:17;;;;;;;;;59.33;47.00;;;;;;;;4991302;28;45407;-70
2022/03/29 08:51:43;;;;;;;;;58.67;46.00;;;;;;;;4992772;28;45442;-70
2022/03/29 08:54:08;;;;;;;;;60.75;46.50;;;;;;;;4988640;28;45370;-70
2022/03/29 08:56:33;;;;;;;;;56.00;44.33;;;;;;;;5004238;27;45373;-70
2022/03/29 08:58:59;;;;;;;;;64.00;47.00;;;;;;;;4993441;27;45603;-71
2022/03/29 09:01:24;;;;;;;;;60.00;45.67;;;;;;;;4982618;28;46519;-71
2022/03/29 09:04:03;;;;;;;;;57.00;44.33;;;;;;;;4990056;28;45457;-71
2022/03/29 09:06:29;;;;;;;;;58.00;45.33;;;;;;;;4988868;28;45410;-71
2022/03/29 09:08:54;;;;;;;;;61.67;49.00;;;;;;;;5015968;28;45342;-71
2022/03/29 09:11:20;;;;;;;;;64.00;49.33;;;;;;;;5002452;28;45494;-71
2022/03/29 09:13:46;;;;;;;;;65.50;50.50;;;;;;;;4994748;28;45440;-71
2022/03/29 09:16:46;;;;;;;;;66.75;51.50;;;;;;;;4996177;28;45328;-73
2022/03/29 09:19:11;;;;;;;;;59.75;48.00;;;;;;;;4974447;28;45568;-71
2022/03/29 09:21:41;;;;;;;;;64.25;50.25;;;;;;;;4973839;28;45196;-72
2022/03/29 09:24:18;;;;;;;;;62.67;50.33;;;;;;;;4974085;28;45423;-71
2022/03/29 09:26:44;;;;;;;;;65.75;50.75;;;;;;;;4974039;28;45468;-72
2022/03/29 09:29:13;;;;;;;;;65.00;48.67;;;;;;;;4974307;28;45419;-73
2022/03/29 09:31:38;;;;;;;;;66.33;50.67;;;;;;;;4973592;28;46054;-72
2022/03/29 09:34:11;;;;;;;;;58.33;45.33;;;;;;;;4968950;28;45353;-72
2022/03/29 09:36:40;;;;;;;;;70.67;48.67;;;;;;;;4959367;28;45394;-72
2022/03/29 09:39:06;;;;;;;;;68.33;50.33;;;;;;;;4960881;28;45493;-71
2022/03/29 09:41:32;;;;;;;;;54.67;45.00;;;;;;;;4954261;28;45482;-71
2022/03/29 09:44:08;;;;;;;;;62.67;47.67;;;;;;;;4954434;28;45521;-71
2022/03/29 09:46:51;;;;;;;;;56.33;43.00;;;;;;;;4957951;28;45388;-71
2022/03/29 09:49:16;;;;;;;;;53.67;43.00;;;;;;;;4960049;28;45469;-71
2022/03/29 09:51:42;;;;;;;;;58.33;44.67;;;;;;;;4957049;28;45532;-71
2022/03/29 09:54:08;;;;;;;;;60.33;45.67;;;;;;;;4994361;28;45420;-71
2022/03/29 09:56:33;;;;;;;;;60.00;46.33;;;;;;;;4997619;28;45384;-72
2022/03/29 09:59:17;;;;;;;;;64.00;46.67;;;;;;;;4998897;28;45480;-71
2022/03/29 10:01:49;;;;;;;;;59.33;46.67;;;;;;;;4995723;28;45495;-71
2022/03/29 10:04:16;;;;;;;;;58.00;43.00;;;;;;;;4996046;28;45436;-71
2022/03/29 10:06:42;;;;;;;;;58.33;43.67;;;;;;;;5021651;28;46515;-71
2022/03/29 10:09:26;;;;;;;;;54.00;44.00;;;;;;;;4995462;28;45439;-71
2022/03/29 10:11:53;;;;;;;;;55.33;42.33;;;;;;;;4995284;28;45512;-71
2022/03/29 10:14:21;;;;;;;;;56.67;44.00;;;;;;;;4995333;28;45425;-71
2022/03/29 10:16:47;;;;;;;;;57.00;45.00;;;;;;;;4995077;28;45411;-71
2022/03/29 10:19:13;;;;;;;;;55.67;43.67;;;;;;;;4995081;28;45437;-72
2022/03/29 10:21:38;;;;;;;;;60.67;45.67;;;;;;;;4994999;28;46566;-72
2022/03/29 10:24:04;;;;;;;;;56.67;43.67;;;;;;;;5014331;27;45665;-71
2022/03/29 10:26:29;;;;;;;;;55.00;44.00;;;;;;;;4994438;28;45362;-71
2022/03/29 10:28:54;;;;;;;;;61.33;47.00;;;;;;;;4975839;28;45304;-71
2022/03/29 10:31:31;;;;;;;;;60.67;43.67;;;;;;;;4976690;28;46026;-71
2022/03/29 10:34:10;;;;;;;;;51.00;40.33;;;;;;;;4980342;28;45394;-71
2022/03/29 10:36:55;;;;;;;;;56.33;43.00;;;;;;;;4992246;28;45483;-72
2022/03/29 10:39:21;;;;;;;;;57.67;43.67;;;;;;;;4981049;28;45398;-71
2022/03/29 10:41:50;;;;;;;;;58.33;44.00;;;;;;;;4986602;28;45469;-71
2022/03/29 10:44:16;;;;;;;;;59.00;44.67;;;;;;;;4994845;28;45572;-71
2022/03/29 10:46:48;;;;;;;;;56.33;41.67;;;;;;;;4994881;28;45420;-71
2022/03/29 10:49:22;;;;;;;;;58.00;42.67;;;;;;;;5026988;28;45523;-71
2022/03/29 10:52:05;;;;;;;;;57.33;45.67;;;;;;;;4994542;28;46174;-73
2022/03/29 10:54:32;;;;;;;;;58.33;45.00;;;;;;;;4994705;28;45610;-70
2022/03/29 10:57:02;;;;;;;;;53.67;44.67;;;;;;;;4994974;28;45216;-71
2022/03/29 10:59:28;;;;;;;;;59.67;46.33;;;;;;;;4995038;28;45413;-71
2022/03/29 11:02:08;;;;;;;;;59.00;47.00;;;;;;;;4994325;28;45699;-70
2022/03/29 11:04:34;;;;;;;;;58.33;46.33;;;;;;;;4994831;28;45436;-71
2022/03/29 11:07:05;;;;;;;;;60.67;45.00;;;;;;;;4994710;28;45705;-72
2022/03/29 11:09:31;;;;;;;;;60.00;44.33;;;;;;;;5001437;28;45237;-72
2022/03/29 11:11:56;;;;;;;;;60.33;47.00;;;;;;;;5012911;27;46642;-72
2022/03/29 11:14:27;;;;;;;;;62.33;45.67;;;;;;;;5012110;28;45493;-72
2022/03/29 11:17:13;;;;;;;;;62.00;47.67;;;;;;;;4995087;28;45325;-72
2022/03/29 11:19:46;;;;;;;;;67.67;49.00;;;;;;;;4992155;27;46537;-72
2022/03/29 11:22:23;;;;;;;;;60.67;46.00;;;;;;;;4984647;28;46188;-72
2022/03/29 11:24:49;;;;;;;;;60.67;48.33;;;;;;;;5012803;28;45401;-72
2022/03/29 11:27:22;;;;;;;;;62.75;48.00;;;;;;;;5014226;28;45478;-72
2022/03/29 11:29:47;;;;;;;;;63.00;48.67;;;;;;;;5013280;28;45467;-72
2022/03/29 11:32:14;;;;;;;;;58.67;47.33;;;;;;;;4980822;28;46200;-72
2022/03/29 11:34:44;;;;;;;;;63.33;47.33;;;;;;;;4981015;28;45575;-74
2022/03/29 11:37:24;;;;;;;;;64.33;48.67;;;;;;;;4995270;28;45537;-74
2022/03/29 11:39:50;;;;;;;;;61.67;47.33;;;;;;;;4994454;28;45337;-74
2022/03/29 11:42:15;;;;;;;;;58.33;46.00;;;;;;;;4975738;28;46273;-73
2022/03/29 11:44:40;;;;;;;;;58.67;44.33;;;;;;;;4974662;28;45415;-74
2022/03/29 11:47:07;;;;;;;;;57.00;44.33;;;;;;;;4978253;28;45506;-74
2022/03/29 11:49:39;;;;;;;;;59.00;48.00;;;;;;;;4995315;28;45655;-74
2022/03/29 11:52:21;;;;;;;;;62.33;47.67;;;;;;;;5129482;27;45472;-74
2022/03/29 11:54:46;;;;;;;;;58.00;46.33;;;;;;;;5130673;27;45403;-74
2022/03/29 11:57:20;;;;;;;;;56.00;44.67;;;;;;;;5114275;27;45511;-75
2022/03/29 11:59:46;;;;;;;;;61.00;47.25;;;;;;;;5114970;27;45340;-74
2022/03/29 12:02:11;;;;;;;;;61.33;46.33;;;;;;;;5117479;27;46476;-75
2022/03/29 12:04:38;;;;;;;;;65.67;49.67;;;;;;;;5123678;27;45434;-74
2022/03/29 12:07:03;;;;;;;;;63.25;48.00;;;;;;;;5114565;27;45596;-74
2022/03/29 12:09:30;;;;;;;;;53.33;44.33;;;;;;;;5114635;27;45369;-75
2022/03/29 12:11:56;;;;;;;;;61.00;43.00;;;;;;;;5114184;27;47217;-75
2022/03/29 12:14:22;;;;;;;;;59.67;45.33;;;;;;;;5114316;27;45753;-75
2022/03/29 12:16:48;;;;;;;;;53.67;44.33;;;;;;;;5114052;27;45454;-75
2022/03/29 12:19:15;;;;;;;;;49.33;41.33;;;;;;;;5111994;27;45518;-75
2022/03/29 12:21:42;;;;;;;;;59.67;44.67;;;;;;;;5113924;27;47339;-75
2022/03/29 12:24:08;;;;;;;;;52.33;40.00;;;;;;;;5113599;27;45727;-75
2022/03/29 12:26:39;;;;;;;;;54.67;44.67;;;;;;;;5114253;27;45339;-74
2022/03/29 12:29:07;;;;;;;;;53.67;42.67;;;;;;;;5114212;27;45481;-73
2022/03/29 12:31:34;;;;;;;;;52.00;40.67;;;;;;;;5113727;27;46382;-73
2022/03/29 12:33:59;;;;;;;;;50.67;42.33;;;;;;;;5113140;27;45569;-72
2022/03/29 12:36:25;;;;;;;;;49.67;37.33;;;;;;;;5113462;27;45584;-72
2022/03/29 12:38:54;;;;;;;;;52.33;41.67;;;;;;;;5113696;27;45387;-73
2022/03/29 12:41:38;;;;;;;;;56.33;42.33;;;;;;;;5114059;27;45543;-73
2022/03/29 12:44:08;;;;;;;;;53.33;42.33;;;;;;;;5113824;27;45513;-73
2022/03/29 12:46:34;;;;;;;;;41.00;34.33;;;;;;;;5113912;27;45400;-73
2022/03/29 12:49:00;;;;;;;;;42.00;31.33;;;;;;;;5114065;27;45219;-73
2022/03/29 12:51:27;;;;;;;;;47.33;35.67;;;;;;;;5113166;27;46513;-73
2022/03/29 12:54:09;;;;;;;;;43.33;34.33;;;;;;;;5113396;27;45379;-73
2022/03/29 12:56:34;;;;;;;;;42.00;35.67;;;;;;;;5127063;27;45472;-72
2022/03/29 12:59:00;;;;;;;;;42.67;34.00;;;;;;;;5134556;27;45440;-71
2022/03/29 13:01:31;;;;;;;;;32.67;30.00;;;;;;;;5131835;27;46589;-72
2022/03/29 13:04:06;;;;;;;;;26.67;24.00;;;;;;;;5079018;27;45422;-73
2022/03/29 13:06:39;;;;;;;;;33.33;30.00;;;;;;;;5099591;27;45189;-73
2022/03/29 13:09:04;;;;;;;;;33.67;29.33;;;;;;;;5103297;27;45437;-73
2022/03/29 13:11:29;;;;;;;;;33.67;31.67;;;;;;;;5095079;27;46327;-72
2022/03/29 13:14:15;;;;;;;;;45.00;31.67;;;;;;;;5099474;27;45394;-72
2022/03/29 13:16:53;;;;;;;;;44.33;34.67;;;;;;;;5098701;27;45437;-73
2022/03/29 13:19:18;;;;;;;;;33.67;31.33;;;;;;;;5099114;27;45489;-72
2022/03/29 13:21:45;;;;;;;;;50.00;37.67;;;;;;;;5099928;27;46099;-72
2022/03/29 13:24:15;;;;;;;;;33.67;31.67;;;;;;;;5103031;27;45392;-72
2022/03/29 13:26:42;;;;;;;;;51.00;41.33;;;;;;;;5104933;27;45469;-70
2022/03/29 13:29:08;;;;;;;;;45.00;34.67;;;;;;;;5112228;27;45386;-72
2022/03/29 13:31:34;;;;;;;;;49.67;35.33;;;;;;;;5105576;27;46342;-70
2022/03/29 13:34:00;;;;;;;;;48.33;38.00;;;;;;;;5099263;27;45364;-70
2022/03/29 13:36:26;;;;;;;;;47.67;39.33;;;;;;;;5099542;27;45211;-70
2022/03/29 13:38:52;;;;;;;;;38.00;34.67;;;;;;;;5099373;27;45428;-73
2022/03/29 13:41:18;;;;;;;;;52.67;38.33;;;;;;;;5099038;27;45448;-72
2022/03/29 13:43:43;;;;;;;;;45.00;35.67;;;;;;;;5112088;27;45452;-70
2022/03/29 13:46:09;;;;;;;;;50.00;38.67;;;;;;;;5100077;27;45476;-70
2022/03/29 13:48:35;;;;;;;;;47.67;36.33;;;;;;;;5097900;27;45480;-70
2022/03/29 13:51:02;;;;;;;;;52.33;39.33;;;;;;;;5100265;27;45623;-72
2022/03/29 13:53:28;;;;;;;;;53.67;43.00;;;;;;;;5105825;27;45612;-73
2022/03/29 13:55:53;;;;;;;;;49.67;40.00;;;;;;;;5099427;27;45576;-73
2022/03/29 13:58:18;;;;;;;;;55.00;39.67;;;;;;;;5100350;27;45379;-72
2022/03/29 14:00:43;;;;;;;;;47.67;37.33;;;;;;;;5098951;27;45619;-71
2022/03/29 14:03:09;;;;;;;;;43.00;37.00;;;;;;;;5099003;27;45373;-73
2022/03/29 14:05:38;;;;;;;;;45.00;37.67;;;;;;;;5098922;27;45370;-71
2022/03/29 14:08:03;;;;;;;;;43.67;36.67;;;;;;;;5098745;27;45497;-71
2022/03/29 14:10:28;;;;;;;;;51.00;38.33;;;;;;;;5098006;27;46261;-71
2022/03/29 14:12:54;;;;;;;;;47.67;38.00;;;;;;;;5098643;27;45508;-73
2022/03/29 14:15:19;;;;;;;;;43.33;36.67;;;;;;;;5097375;27;45428;-73
2022/03/29 14:17:46;;;;;;;;;47.67;37.33;;;;;;;;5099088;27;45476;-73
2022/03/29 14:20:13;;;;;;;;;45.67;34.00;;;;;;;;5101556;27;46321;-73
2022/03/29 14:22:38;;;;;;;;;47.67;38.00;;;;;;;;5098660;27;45482;-71
2022/03/29 14:25:04;;;;;;;;;52.67;40.00;;;;;;;;5108714;27;45471;-72